Time;durP1;ratioP1;P1;durP2;ratioP2;P2;SDS_P1;SDS_P2;PMS_P1;PMS_P2;Temp;Humidity;BMP_temperature;BMP_pressure;BME280_temperature;BME280_humidity;BME280_pressure;Samples;Min_cycle;Max_cycle;Signal;HPM_P1;HPM_P2
2022/05/01 00:01:35;;;;;;;253.73;23.67;;;7.90;99.90;;;;;;4977907;28;20402;-59
2022/05/01 00:04:01;;;;;;;388.58;29.02;;;7.90;99.90;;;;;;4975436;28;20031;-58
2022/05/01 00:06:27;;;;;;;484.05;33.40;;;7.80;99.90;;;;;;4980886;28;20109;-58
2022/05/01 00:08:53;;;;;;;208.15;25.88;;;7.80;99.90;;;;;;4982371;28;20150;-58
2022/05/01 00:11:19;;;;;;;423.90;31.02;;;7.80;99.90;;;;;;4980264;28;20034;-59
2022/05/01 00:13:45;;;;;;;220.25;25.60;;;7.80;99.90;;;;;;4980052;28;20036;-59
2022/05/01 00:16:12;;;;;;;213.02;25.27;;;7.80;99.90;;;;;;4979665;28;20097;-59
2022/05/01 00:18:38;;;;;;;432.10;32.80;;;7.70;99.90;;;;;;4984026;28;20033;-58
2022/05/01 00:21:04;;;;;;;154.32;24.83;;;7.70;99.90;;;;;;4979973;28;20027;-59
2022/05/01 00:23:30;;;;;;;26.50;20.60;;;7.70;99.90;;;;;;4983754;28;20045;-60
2022/05/01 00:25:57;;;;;;;42.55;21.98;;;7.70;99.90;;;;;;4982292;28;20026;-59
2022/05/01 00:28:23;;;;;;;160.23;28.13;;;7.70;99.90;;;;;;4983021;28;20100;-59
2022/05/01 00:30:49;;;;;;;115.22;26.30;;;7.70;99.90;;;;;;4978842;28;20038;-59
2022/05/01 00:38:43;;;;;;;69.50;23.80;;;7.70;99.90;;;;;;4977373;28;20529;-59
2022/05/01 00:41:09;;;;;;;121.70;24.88;;;7.60;99.90;;;;;;4983479;28;20062;-59
2022/05/01 00:44:00;;;;;;;115.07;25.25;;;7.70;99.90;;;;;;4979300;28;20034;-58
2022/05/01 00:46:27;;;;;;;38.92;22.90;;;7.60;99.90;;;;;;4984929;28;20489;-59
2022/05/01 00:48:52;;;;;;;105.13;26.17;;;7.60;99.90;;;;;;4977944;28;20034;-60
2022/05/01 00:51:22;;;;;;;117.80;25.45;;;7.50;99.90;;;;;;4978301;28;20031;-58
2022/05/01 00:53:52;;;;;;;134.65;30.17;;;7.50;99.90;;;;;;4982325;28;20029;-59
2022/05/01 00:56:18;;;;;;;106.32;27.60;;;7.50;99.90;;;;;;4982716;28;20498;-59
2022/05/01 00:58:46;;;;;;;338.48;26.88;;;7.50;99.90;;;;;;4987396;28;20026;-59
2022/05/01 01:01:13;;;;;;;365.08;27.35;;;7.40;99.90;;;;;;4986555;28;20042;-59
2022/05/01 01:03:39;;;;;;;415.80;29.73;;;7.40;99.90;;;;;;4985907;28;20053;-59
2022/05/01 01:06:05;;;;;;;481.95;32.28;;;7.30;99.90;;;;;;4987520;28;20520;-58
2022/05/01 01:08:32;;;;;;;392.75;38.15;;;7.30;99.90;;;;;;4985472;28;20104;-59
2022/05/01 01:10:58;;;;;;;297.95;38.95;;;7.20;99.90;;;;;;4980092;28;20062;-59
2022/05/01 01:13:28;;;;;;;268.80;32.30;;;7.20;99.90;;;;;;4986360;28;20124;-60
2022/05/01 01:15:54;;;;;;;164.75;28.63;;;7.20;99.90;;;;;;4987440;28;20519;-59
2022/05/01 01:18:21;;;;;;;118.68;24.38;;;7.20;99.90;;;;;;4984357;28;20458;-58
2022/05/01 01:20:46;;;;;;;430.02;35.30;;;7.20;99.90;;;;;;4979438;28;20781;-59
2022/05/01 01:23:14;;;;;;;406.33;34.42;;;7.30;99.90;;;;;;4977497;28;20046;-58
2022/05/01 01:25:40;;;;;;;408.90;33.90;;;7.30;99.90;;;;;;4984397;28;20113;-58
2022/05/01 01:28:08;;;;;;;353.33;35.30;;;7.30;99.90;;;;;;4982051;28;20031;-59
2022/05/01 01:33:20;;;;;;;312.52;32.10;;;7.40;99.90;;;;;;4979552;28;20149;-58
2022/05/01 01:35:50;;;;;;;317.55;33.90;;;7.40;99.90;;;;;;4985673;28;20050;-59
2022/05/01 01:38:16;;;;;;;454.45;35.63;;;7.40;99.90;;;;;;4985567;28;20034;-58
2022/05/01 01:40:48;;;;;;;375.80;34.17;;;7.40;99.90;;;;;;4980003;28;20065;-59
2022/05/01 01:43:17;;;;;;;421.92;34.65;;;7.50;99.90;;;;;;4988488;28;20027;-59
2022/05/01 01:45:43;;;;;;;241.80;27.90;;;7.50;99.90;;;;;;4985410;28;20022;-58
2022/05/01 01:48:14;;;;;;;283.98;29.98;;;7.50;99.90;;;;;;4987672;28;20015;-59
2022/05/01 01:50:40;;;;;;;175.15;26.20;;;7.50;99.90;;;;;;4984130;28;20023;-59
2022/05/01 01:53:08;;;;;;;283.23;29.83;;;7.50;99.90;;;;;;4979770;28;20061;-59
2022/05/01 01:55:38;;;;;;;272.63;29.00;;;7.60;99.90;;;;;;4976487;28;20035;-59
2022/05/01 01:58:05;;;;;;;200.38;26.92;;;7.60;99.90;;;;;;4978923;28;20085;-59
2022/05/01 02:00:30;;;;;;;250.73;30.08;;;7.60;99.90;;;;;;4982124;28;20041;-59
2022/05/01 02:02:58;;;;;;;380.58;36.50;;;7.60;99.90;;;;;;4985911;28;20026;-59
2022/05/01 02:05:23;;;;;;;240.90;30.80;;;7.60;99.90;;;;;;4982686;28;20033;-59
2022/05/01 02:07:49;;;;;;;367.83;35.72;;;7.60;99.90;;;;;;4984024;28;20025;-60
2022/05/01 02:10:15;;;;;;;472.92;43.50;;;7.60;99.90;;;;;;4987993;28;20034;-59
2022/05/01 02:12:40;;;;;;;271.08;34.10;;;7.60;99.90;;;;;;4980238;28;20029;-59
2022/05/01 02:15:07;;;;;;;294.48;34.60;;;7.60;99.90;;;;;;4979661;28;20026;-59
2022/05/01 02:17:33;;;;;;;137.32;26.60;;;7.60;99.90;;;;;;4989931;28;20022;-58
2022/05/01 02:19:59;;;;;;;377.77;32.78;;;7.60;99.90;;;;;;4985818;28;20030;-59
2022/05/01 02:22:25;;;;;;;138.93;25.75;;;7.60;99.90;;;;;;4986908;28;20034;-59
2022/05/01 02:24:50;;;;;;;237.40;27.27;;;7.60;99.90;;;;;;4980813;28;20072;-58
2022/05/01 02:27:16;;;;;;;212.63;27.40;;;7.60;99.90;;;;;;4968649;28;20029;-58
2022/05/01 02:29:43;;;;;;;254.30;27.95;;;7.60;99.90;;;;;;4992379;28;20027;-59
2022/05/01 02:32:08;;;;;;;116.10;22.35;;;7.60;99.90;;;;;;4979648;28;20438;-59
2022/05/01 02:34:34;;;;;;;155.65;25.63;;;7.50;99.90;;;;;;4981036;28;20125;-58
2022/05/01 02:37:00;;;;;;;122.43;23.02;;;7.50;99.90;;;;;;4980554;28;20034;-59
2022/05/01 02:39:25;;;;;;;175.68;25.02;;;7.40;99.90;;;;;;4980290;28;20057;-59
2022/05/01 02:41:51;;;;;;;222.55;24.35;;;7.40;99.90;;;;;;4979363;28;20070;-59
2022/05/01 02:44:17;;;;;;;108.68;21.02;;;7.40;99.90;;;;;;4980271;28;20406;-59
2022/05/01 02:46:42;;;;;;;137.05;21.95;;;7.30;99.90;;;;;;4978896;28;20027;-59
2022/05/01 02:49:10;;;;;;;98.28;20.38;;;7.30;99.90;;;;;;4984745;28;20022;-59
2022/05/01 02:51:36;;;;;;;122.15;19.55;;;7.30;99.90;;;;;;4986761;28;20038;-59
2022/05/01 02:54:04;;;;;;;104.72;20.55;;;7.20;99.90;;;;;;4981052;28;20934;-59
2022/05/01 02:56:30;;;;;;;109.88;20.58;;;7.20;99.90;;;;;;4986891;28;20042;-58
2022/05/01 02:58:57;;;;;;;62.28;20.33;;;7.10;99.90;;;;;;4983139;28;20027;-59
2022/05/01 03:01:23;;;;;;;158.30;23.48;;;7.00;99.90;;;;;;4976376;28;20442;-58
2022/05/01 03:03:49;;;;;;;65.90;19.52;;;6.90;99.90;;;;;;4979457;28;20055;-59
2022/05/01 03:06:14;;;;;;;42.30;19.33;;;6.90;99.90;;;;;;4980566;28;20101;-58
2022/05/01 03:08:40;;;;;;;34.92;20.02;;;6.80;99.90;;;;;;4986605;28;20484;-59
2022/05/01 03:11:06;;;;;;;39.03;18.48;;;6.80;99.90;;;;;;4982817;28;20035;-59
2022/05/01 03:13:31;;;;;;;34.85;20.83;;;6.70;99.90;;;;;;4980687;28;20050;-60
2022/05/01 03:15:57;;;;;;;147.52;22.17;;;6.70;99.90;;;;;;4979015;28;20518;-59
2022/05/01 03:23:51;;;;;;;207.30;23.20;;;6.60;99.90;;;;;;4981805;28;20157;-59
2022/05/01 03:26:18;;;;;;;200.15;23.42;;;6.60;99.90;;;;;;4980301;28;20666;-59
2022/05/01 03:28:47;;;;;;;72.53;20.65;;;6.60;99.90;;;;;;4981775;28;20041;-59
2022/05/01 03:31:13;;;;;;;45.05;17.45;;;6.60;99.90;;;;;;4982208;28;20031;-59
2022/05/01 03:33:39;;;;;;;317.35;26.85;;;6.60;99.90;;;;;;4977955;28;20027;-60
2022/05/01 03:36:06;;;;;;;214.80;24.42;;;6.60;99.90;;;;;;4982954;28;20455;-59
2022/05/01 03:38:38;;;;;;;194.43;22.40;;;6.60;99.90;;;;;;4987690;28;20121;-59
2022/05/01 03:41:06;;;;;;;161.65;21.90;;;6.60;99.90;;;;;;4983270;28;20565;-58
2022/05/01 03:43:33;;;;;;;62.55;19.13;;;6.50;99.90;;;;;;4980959;28;20081;-59
2022/05/01 03:45:59;;;;;;;310.45;25.58;;;6.60;99.90;;;;;;4983884;28;20030;-60
2022/05/01 03:48:25;;;;;;;189.75;22.20;;;6.50;99.90;;;;;;4988812;28;20438;-58
2022/05/01 03:50:52;;;;;;;218.52;25.85;;;6.50;99.90;;;;;;4975558;28;20030;-59
2022/05/01 03:53:19;;;;;;;127.65;23.25;;;6.40;99.90;;;;;;4979604;28;20034;-58
2022/05/01 03:55:44;;;;;;;180.55;25.75;;;6.40;99.90;;;;;;4981969;28;20462;-58
2022/05/01 03:58:10;;;;;;;201.65;36.38;;;6.40;99.90;;;;;;4982879;28;20034;-59
2022/05/01 04:00:35;;;;;;;151.43;31.83;;;6.40;99.90;;;;;;4979427;28;20129;-59
2022/05/01 04:03:01;;;;;;;68.85;20.08;;;6.30;99.90;;;;;;4976655;28;20081;-59
2022/05/01 04:05:27;;;;;;;156.70;23.50;;;6.40;99.90;;;;;;4977115;28;20037;-58
2022/05/01 04:07:52;;;;;;;237.18;26.08;;;6.40;99.90;;;;;;4982940;28;20026;-59
2022/05/01 04:10:19;;;;;;;191.07;24.73;;;6.30;99.90;;;;;;4981642;28;20035;-59
2022/05/01 04:12:45;;;;;;;102.88;22.48;;;6.40;99.90;;;;;;4979103;28;20034;-59
2022/05/01 04:15:14;;;;;;;65.75;23.75;;;6.40;99.90;;;;;;4980755;28;20033;-59
2022/05/01 04:17:41;;;;;;;31.98;24.45;;;6.40;99.90;;;;;;4986741;28;20560;-59
2022/05/01 04:20:09;;;;;;;25.58;20.40;;;6.40;99.90;;;;;;4981734;28;20039;-59
2022/05/01 04:22:45;;;;;;;21.05;18.88;;;6.40;99.90;;;;;;4977446;28;20023;-58
2022/05/01 04:25:29;;;;;;;22.75;20.70;;;6.40;99.90;;;;;;4980883;28;20038;-58
2022/05/01 04:28:06;;;;;;;23.40;20.92;;;6.40;99.90;;;;;;4979598;28;20042;-58
2022/05/01 04:30:33;;;;;;;24.13;21.63;;;6.50;99.90;;;;;;4975637;28;20026;-58
2022/05/01 04:33:07;;;;;;;20.63;18.48;;;6.40;99.90;;;;;;4979897;28;20393;-59
2022/05/01 04:35:35;;;;;;;19.02;17.23;;;6.50;99.90;;;;;;4980803;28;20039;-59
2022/05/01 04:38:07;;;;;;;20.13;18.35;;;6.50;99.90;;;;;;4981921;28;20111;-60
2022/05/01 04:40:40;;;;;;;19.55;17.83;;;6.50;99.90;;;;;;4980567;28;20038;-59
2022/05/01 04:43:09;;;;;;;23.70;18.98;;;6.50;99.90;;;;;;4981137;28;20040;-58
2022/05/01 04:45:36;;;;;;;20.30;18.48;;;6.50;99.90;;;;;;4986176;28;20085;-59
2022/05/01 04:48:03;;;;;;;19.23;17.52;;;6.50;99.90;;;;;;4980872;28;20034;-59
2022/05/01 04:50:29;;;;;;;20.15;18.33;;;6.50;99.90;;;;;;4986878;28;20038;-59
2022/05/01 04:52:56;;;;;;;20.02;18.13;;;6.50;99.90;;;;;;4980011;28;20114;-58
2022/05/01 04:55:22;;;;;;;23.02;20.40;;;6.50;99.90;;;;;;4984607;28;20031;-59
2022/05/01 04:57:47;;;;;;;27.00;19.15;;;6.50;99.90;;;;;;4983029;28;20077;-59
2022/05/01 05:00:13;;;;;;;17.42;16.02;;;6.60;99.90;;;;;;4982120;28;20050;-59
2022/05/01 05:02:41;;;;;;;28.05;14.48;;;6.80;99.90;;;;;;4977811;28;20026;-59
2022/05/01 05:05:12;;;;;;;14.25;13.02;;;7.20;99.90;;;;;;4979002;28;20494;-59
2022/05/01 05:07:39;;;;;;;14.38;13.25;;;7.60;99.90;;;;;;4977953;28;20038;-59
2022/05/01 05:10:07;;;;;;;15.13;13.73;;;8.10;99.90;;;;;;4983518;28;20695;-59
2022/05/01 05:12:33;;;;;;;15.95;14.48;;;8.70;99.90;;;;;;4977432;28;20033;-59
2022/05/01 05:15:00;;;;;;;12.27;11.23;;;9.20;99.90;;;;;;4976785;28;20034;-60
2022/05/01 05:17:27;;;;;;;11.23;10.13;;;9.60;99.90;;;;;;4977367;28;20471;-59
2022/05/01 05:19:54;;;;;;;16.27;7.70;;;10.10;99.90;;;;;;4979072;28;20038;-59
2022/05/01 05:22:20;;;;;;;6.90;6.40;;;10.50;99.90;;;;;;4980127;28;20050;-59
2022/05/01 05:24:46;;;;;;;8.50;7.90;;;10.80;99.90;;;;;;4982137;28;20043;-58
2022/05/01 05:27:13;;;;;;;10.82;10.02;;;11.30;99.90;;;;;;4978105;28;20084;-59
2022/05/01 05:29:39;;;;;;;9.88;9.18;;;11.80;99.90;;;;;;4980863;28;20414;-60
2022/05/01 05:32:05;;;;;;;9.30;8.60;;;12.50;99.90;;;;;;4977557;28;20027;-59
2022/05/01 05:34:31;;;;;;;7.95;7.25;;;13.00;99.90;;;;;;4978449;28;20031;-60
2022/05/01 05:36:57;;;;;;;7.40;6.72;;;13.70;99.90;;;;;;4980399;28;20363;-60
2022/05/01 05:39:23;;;;;;;7.13;6.35;;;14.20;99.90;;;;;;4984282;28;20030;-59
2022/05/01 05:41:48;;;;;;;7.18;6.65;;;14.50;99.90;;;;;;4978148;28;20033;-59
2022/05/01 05:44:14;;;;;;;6.95;6.45;;;14.60;99.90;;;;;;4979939;28;20027;-59
2022/05/01 05:46:40;;;;;;;6.43;5.82;;;14.40;99.90;;;;;;4984828;28;20066;-59
2022/05/01 05:49:05;;;;;;;8.40;7.70;;;14.00;99.90;;;;;;4986406;28;20023;-59
2022/05/01 05:51:31;;;;;;;6.63;6.00;;;14.00;99.90;;;;;;4980510;28;20391;-60
2022/05/01 05:53:57;;;;;;;6.60;6.10;;;14.20;99.90;;;;;;4981916;28;20116;-59
2022/05/01 05:56:23;;;;;;;6.38;5.88;;;15.00;99.90;;;;;;4983813;28;20109;-59
2022/05/01 05:58:48;;;;;;;6.15;5.63;;;15.80;99.90;;;;;;4979532;28;20042;-60
2022/05/01 06:01:14;;;;;;;5.22;4.82;;;16.70;99.90;;;;;;4987266;28;20122;-59
2022/05/01 06:03:40;;;;;;;5.57;5.18;;;17.50;99.90;;;;;;4982885;28;20034;-60
2022/05/01 06:06:06;;;;;;;6.35;4.65;;;17.70;99.90;;;;;;4979820;28;20569;-60
2022/05/01 06:08:35;;;;;;;4.85;4.45;;;17.90;99.90;;;;;;4986704;28;20044;-62
2022/05/01 06:11:00;;;;;;;5.32;4.93;;;17.90;99.90;;;;;;4985247;28;20062;-60
2022/05/01 06:13:26;;;;;;;6.05;5.05;;;17.60;95.90;;;;;;4975096;28;20495;-59
2022/05/01 06:15:52;;;;;;;5.47;5.07;;;17.20;99.20;;;;;;4982493;28;20490;-59
2022/05/01 06:18:17;;;;;;;6.47;5.90;;;16.60;99.90;;;;;;4984962;28;20246;-60
2022/05/01 06:20:43;;;;;;;6.88;6.22;;;15.80;99.90;;;;;;4983779;28;20030;-59
2022/05/01 06:23:09;;;;;;;6.68;6.18;;;15.20;99.90;;;;;;4982736;28;20026;-59
2022/05/01 06:25:43;;;;;;;6.53;6.03;;;14.60;99.90;;;;;;4979979;28;20052;-59
2022/05/01 06:28:10;;;;;;;6.95;6.32;;;14.10;99.90;;;;;;4984934;28;20122;-59
2022/05/01 06:30:43;;;;;;;7.22;6.63;;;13.60;99.90;;;;;;4983655;28;20558;-61
2022/05/01 06:33:10;;;;;;;7.07;6.57;;;13.30;99.90;;;;;;4979133;28;20086;-59
2022/05/01 06:35:37;;;;;;;7.05;6.38;;;13.30;99.90;;;;;;4976883;28;20042;-59
2022/05/01 06:38:02;;;;;;;6.97;6.50;;;13.60;99.90;;;;;;4981231;28;20044;-59
2022/05/01 06:40:28;;;;;;;7.70;6.88;;;13.60;99.90;;;;;;4983260;28;20038;-59
2022/05/01 06:42:54;;;;;;;7.50;6.93;;;13.60;99.90;;;;;;4984987;28;20109;-59
2022/05/01 06:45:20;;;;;;;7.00;6.43;;;13.50;99.90;;;;;;4978882;28;20032;-59
2022/05/01 06:47:45;;;;;;;7.50;6.82;;;13.50;99.90;;;;;;4983195;28;20109;-59
2022/05/01 06:50:11;;;;;;;9.43;6.72;;;13.50;99.90;;;;;;4986458;28;20110;-60
2022/05/01 06:52:37;;;;;;;6.82;6.32;;;13.80;99.90;;;;;;4983210;28;20569;-59
2022/05/01 06:55:04;;;;;;;7.00;6.45;;;14.40;99.90;;;;;;4979131;28;20029;-59
2022/05/01 06:57:30;;;;;;;6.57;6.05;;;15.70;99.90;;;;;;4979191;28;20101;-59
2022/05/01 06:59:56;;;;;;;6.45;5.88;;;17.20;96.20;;;;;;4988261;28;20462;-59
2022/05/01 07:02:21;;;;;;;8.82;6.80;;;18.80;91.70;;;;;;4982523;28;20039;-60
2022/05/01 07:04:47;;;;;;;6.18;5.57;;;20.00;80.30;;;;;;4978560;28;20038;-61
2022/05/01 07:07:13;;;;;;;7.45;6.57;;;20.90;74.10;;;;;;4984807;28;20019;-60
2022/05/01 07:09:39;;;;;;;7.45;6.72;;;21.40;71.50;;;;;;4979856;28;20030;-61
2022/05/01 07:12:06;;;;;;;9.60;6.03;;;22.10;66.30;;;;;;4979639;28;20470;-60
2022/05/01 07:14:32;;;;;;;6.60;6.00;;;22.60;65.70;;;;;;4983557;28;20521;-60
2022/05/01 07:16:58;;;;;;;7.28;6.57;;;23.00;62.40;;;;;;4979940;28;20026;-60
2022/05/01 07:19:23;;;;;;;7.57;6.90;;;22.90;60.80;;;;;;4979919;28;20031;-60
2022/05/01 07:21:49;;;;;;;6.90;6.18;;;22.20;60.60;;;;;;4989110;28;20078;-60
2022/05/01 07:24:14;;;;;;;6.78;6.13;;;22.00;62.40;;;;;;4982692;28;20030;-60
2022/05/01 07:26:40;;;;;;;8.27;7.50;;;21.30;62.00;;;;;;4981331;28;20034;-59
2022/05/01 07:29:06;;;;;;;8.88;7.95;;;20.70;65.70;;;;;;4981565;28;20023;-60
2022/05/01 07:31:31;;;;;;;9.93;8.57;;;19.90;66.90;;;;;;4982415;28;20053;-59
2022/05/01 07:33:57;;;;;;;9.05;8.15;;;19.10;69.70;;;;;;4983217;28;20534;-60
2022/05/01 07:36:23;;;;;;;8.73;7.65;;;18.50;71.50;;;;;;4981007;28;20500;-60
2022/05/01 07:38:50;;;;;;;8.43;7.72;;;18.00;72.90;;;;;;4989478;28;20038;-59
2022/05/01 07:41:19;;;;;;;9.23;8.18;;;17.70;74.60;;;;;;4985991;28;20054;-59
2022/05/01 07:43:45;;;;;;;8.30;7.53;;;17.60;75.30;;;;;;4980355;28;20117;-59
2022/05/01 07:46:11;;;;;;;8.73;7.80;;;17.60;76.70;;;;;;4978559;28;20490;-59
2022/05/01 07:48:37;;;;;;;9.20;8.30;;;17.80;76.00;;;;;;4981101;28;20042;-60
2022/05/01 07:51:03;;;;;;;8.85;8.02;;;18.20;74.70;;;;;;4978871;28;20015;-59
2022/05/01 07:53:29;;;;;;;8.52;7.72;;;18.60;76.70;;;;;;4982327;28;20038;-59
2022/05/01 07:55:56;;;;;;;8.45;7.63;;;19.50;75.90;;;;;;4981293;28;20167;-59
2022/05/01 07:58:22;;;;;;;8.00;7.28;;;21.00;72.60;;;;;;4977955;28;20096;-59
2022/05/01 08:00:48;;;;;;;8.00;6.97;;;22.20;65.90;;;;;;4979612;28;20038;-59
2022/05/01 08:05:58;;;;;;;8.35;7.65;;;23.90;61.90;;;;;;4980746;28;20036;-60
2022/05/01 08:08:24;;;;;;;7.45;6.82;;;24.70;58.50;;;;;;4978533;28;20039;-60
2022/05/01 08:10:50;;;;;;;8.00;7.22;;;25.70;58.10;;;;;;4989460;28;20101;-60
2022/05/01 08:13:16;;;;;;;8.15;7.05;;;26.40;54.80;;;;;;4974864;28;20406;-62
2022/05/01 08:15:41;;;;;;;8.13;7.45;;;26.90;52.30;;;;;;4984515;28;20085;-60
2022/05/01 08:21:10;;;;;;;7.53;6.93;;;27.50;51.70;;;;;;4962274;28;20090;-61
2022/05/01 08:23:37;;;;;;;7.88;7.25;;;28.00;50.90;;;;;;4956683;28;20127;-60
2022/05/01 08:26:07;;;;;;;7.72;6.97;;;28.20;50.50;;;;;;4973629;28;20482;-62
2022/05/01 08:28:34;;;;;;;8.43;6.60;;;28.50;48.30;;;;;;4977157;28;20042;-60
2022/05/01 08:31:01;;;;;;;7.35;6.75;;;29.10;49.20;;;;;;4979116;28;20077;-61
2022/05/01 08:33:29;;;;;;;6.80;6.30;;;29.80;46.60;;;;;;4981308;28;20705;-60
2022/05/01 08:35:55;;;;;;;8.25;7.38;;;29.90;47.20;;;;;;4984633;28;20054;-60
2022/05/01 08:38:21;;;;;;;7.25;6.57;;;29.70;46.10;;;;;;4979638;28;20763;-60
2022/05/01 08:40:49;;;;;;;6.88;6.28;;;29.60;46.90;;;;;;4978297;28;20041;-60
2022/05/01 08:43:42;;;;;;;7.63;6.90;;;29.50;47.50;;;;;;4966162;28;20061;-60
2022/05/01 08:46:29;;;;;;;7.65;6.85;;;29.10;48.10;;;;;;4981274;28;20022;-60
2022/05/01 08:49:04;;;;;;;7.47;6.75;;;29.40;47.40;;;;;;4984488;28;20022;-60
2022/05/01 08:57:28;;;;;;;8.27;7.50;;;28.90;47.70;;;;;;4969173;28;20066;-90
2022/05/01 08:59:54;;;;;;;7.47;6.78;;;29.50;47.70;;;;;;4971558;28;20045;-90
2022/05/01 09:02:20;;;;;;;7.45;6.85;;;29.20;48.40;;;;;;4970582;28;20758;-90
2022/05/01 09:04:46;;;;;;;7.40;6.78;;;29.70;48.60;;;;;;4955335;28;20036;-90
2022/05/01 09:07:12;;;;;;;12.07;6.72;;;30.30;46.40;;;;;;4952745;28;20035;-90
2022/05/01 09:09:37;;;;;;;6.80;6.10;;;30.70;45.10;;;;;;4950294;28;20031;-90
2022/05/01 09:14:50;;;;;;;7.82;7.07;;;30.20;44.20;;;;;;4951575;29;20070;-91
2022/05/01 09:17:20;;;;;;;7.95;7.10;;;29.70;46.30;;;;;;4952627;28;20456;-89
2022/05/01 09:19:51;;;;;;;7.28;6.60;;;29.80;47.50;;;;;;4955641;29;20114;-89
2022/05/01 09:22:18;;;;;;;6.88;6.28;;;30.10;47.50;;;;;;4954747;28;20051;-90
2022/05/01 09:24:44;;;;;;;6.78;6.18;;;29.70;46.90;;;;;;4954502;28;20031;-90
2022/05/01 09:27:32;;;;;;;7.85;7.15;;;29.70;47.80;;;;;;4955976;28;20082;-90
2022/05/01 09:30:12;;;;;;;7.35;6.65;;;30.40;44.50;;;;;;4955724;29;20483;-89
2022/05/01 09:32:39;;;;;;;7.90;6.78;;;31.40;44.40;;;;;;4967426;28;20086;-90
2022/05/01 09:35:07;;;;;;;8.25;6.65;;;31.90;42.10;;;;;;4963988;28;20119;-90
2022/05/01 09:37:32;;;;;;;10.75;7.47;;;31.80;41.70;;;;;;4953671;28;20043;-89
2022/05/01 09:39:58;;;;;;;7.30;6.70;;;31.20;41.00;;;;;;4958267;28;20030;-89
2022/05/01 09:42:25;;;;;;;7.55;6.78;;;30.40;44.20;;;;;;4955745;28;20031;-89
2022/05/01 09:45:14;;;;;;;8.00;7.30;;;30.00;44.00;;;;;;4956118;28;20031;-89
2022/05/01 09:47:45;;;;;;;6.90;6.30;;;30.00;41.60;;;;;;4954799;28;20035;-89
2022/05/01 09:50:13;;;;;;;7.10;6.50;;;29.50;44.90;;;;;;4954088;29;20019;-89
2022/05/01 09:52:59;;;;;;;7.63;6.90;;;29.90;43.50;;;;;;4954259;28;20524;-89
2022/05/01 09:55:26;;;;;;;6.88;6.28;;;30.50;41.40;;;;;;4941741;28;20060;-89
2022/05/01 09:58:11;;;;;;;7.25;6.47;;;31.10;42.20;;;;;;4953374;28;20712;-90
2022/05/01 10:00:46;;;;;;;7.32;6.15;;;31.80;40.70;;;;;;4969516;28;20027;-89
2022/05/01 10:03:29;;;;;;;7.05;6.38;;;31.80;41.60;;;;;;4954865;28;20456;-89
2022/05/01 10:05:56;;;;;;;7.97;7.18;;;32.00;38.90;;;;;;4953274;29;20407;-89
2022/05/01 10:08:23;;;;;;;6.88;6.25;;;31.20;37.40;;;;;;4950688;28;20032;-89
2022/05/01 10:10:51;;;;;;;8.10;7.00;;;30.80;42.60;;;;;;4969510;28;20495;-88
2022/05/01 10:13:17;;;;;;;9.90;6.57;;;30.70;42.20;;;;;;4952096;28;20065;-89
2022/05/01 10:15:43;;;;;;;7.22;6.18;;;30.80;41.50;;;;;;4955195;28;20050;-88
2022/05/01 10:18:11;;;;;;;6.43;5.93;;;30.70;42.30;;;;;;4952189;28;20123;-89
2022/05/01 10:20:37;;;;;;;6.88;6.30;;;31.00;43.60;;;;;;4954237;28;20030;-89
2022/05/01 10:23:03;;;;;;;7.05;6.07;;;31.20;40.80;;;;;;4954996;28;20399;-87
2022/05/01 10:25:35;;;;;;;6.70;5.90;;;30.80;42.00;;;;;;4953121;28;20038;-88
2022/05/01 10:28:22;;;;;;;6.63;5.57;;;31.20;40.40;;;;;;4953270;28;20921;-89
2022/05/01 10:34:22;;;;;;;6.63;5.88;;;30.80;41.00;;;;;;4955142;28;20111;-89
2022/05/01 10:37:24;;;;;;;8.57;6.05;;;29.90;42.60;;;;;;4941972;28;20450;-89
2022/05/01 10:39:51;;;;;;;6.15;5.55;;;29.30;42.60;;;;;;4937924;28;20027;-89
2022/05/01 10:42:33;;;;;;;5.18;4.68;;;29.10;41.20;;;;;;4954266;28;20024;-89
2022/05/01 10:44:59;;;;;;;6.93;5.93;;;29.20;45.50;;;;;;4969229;28;20491;-89
2022/05/01 10:47:37;;;;;;;5.65;5.05;;;30.00;42.80;;;;;;4951887;28;20118;-88
2022/05/01 10:50:11;;;;;;;7.97;4.93;;;30.80;41.70;;;;;;4951882;29;20099;-87
2022/05/01 10:53:05;;;;;;;6.75;4.97;;;30.80;40.90;;;;;;4951493;28;20038;-88
2022/05/01 10:55:50;;;;;;;6.05;5.07;;;31.20;39.10;;;;;;4952405;28;20193;-89
2022/05/01 10:58:22;;;;;;;5.95;5.47;;;30.70;41.70;;;;;;4951963;28;20039;-89
2022/05/01 11:00:50;;;;;;;5.07;4.65;;;30.20;40.80;;;;;;4953764;28;20059;-88
2022/05/01 11:03:29;;;;;;;4.60;4.20;;;29.70;44.00;;;;;;4952645;28;20133;-88
2022/05/01 11:06:04;;;;;;;4.68;4.28;;;29.40;42.60;;;;;;4951487;28;20073;-88
2022/05/01 11:08:36;;;;;;;4.43;4.03;;;29.40;41.90;;;;;;4954238;28;20788;-89
2022/05/01 11:11:07;;;;;;;5.47;3.50;;;29.60;40.70;;;;;;4949990;28;20498;-89
2022/05/01 11:13:36;;;;;;;4.97;4.18;;;29.80;43.60;;;;;;4951735;28;20040;-89
2022/05/01 11:16:04;;;;;;;3.70;3.40;;;30.30;40.90;;;;;;4954304;28;20067;-89
2022/05/01 11:18:50;;;;;;;4.53;4.13;;;29.50;39.90;;;;;;4952073;28;20027;-90
2022/05/01 11:21:22;;;;;;;5.00;3.97;;;29.60;41.60;;;;;;4942075;28;20043;-89
2022/05/01 11:24:02;;;;;;;7.03;4.10;;;29.90;42.00;;;;;;4952464;28;20031;-89
2022/05/01 11:26:28;;;;;;;4.53;4.13;;;30.40;43.20;;;;;;4950139;29;20117;-88
2022/05/01 11:29:13;;;;;;;6.53;5.43;;;30.40;41.60;;;;;;4954319;28;20027;-89
2022/05/01 11:31:46;;;;;;;6.32;5.75;;;30.00;42.00;;;;;;4966424;28;20086;-89
2022/05/01 11:34:21;;;;;;;5.20;4.50;;;30.00;40.10;;;;;;4953330;28;20447;-89
2022/05/01 11:36:50;;;;;;;5.20;4.70;;;29.50;39.60;;;;;;4951320;28;20023;-88
2022/05/01 11:39:16;;;;;;;6.35;4.97;;;29.20;41.40;;;;;;4952283;28;20050;-88
2022/05/01 11:41:42;;;;;;;4.85;4.35;;;28.30;40.30;;;;;;4949746;29;20491;-89
2022/05/01 11:44:23;;;;;;;5.97;5.38;;;27.90;44.20;;;;;;4950528;28;20038;-89
2022/05/01 11:46:48;;;;;;;5.28;4.88;;;27.20;44.80;;;;;;4952812;28;20154;-89
2022/05/01 11:49:14;;;;;;;6.25;4.93;;;26.40;44.10;;;;;;4952757;28;20114;-88
2022/05/01 11:51:40;;;;;;;6.90;5.50;;;25.60;44.70;;;;;;4947693;28;20035;-89
2022/05/01 11:54:08;;;;;;;10.63;6.15;;;24.80;47.70;;;;;;4934186;29;20047;-88
2022/05/01 12:04:47;;;;;;;7.70;6.35;;;21.70;52.30;;;;;;4925694;29;20098;-89
2022/05/01 12:07:15;;;;;;;6.80;6.07;;;21.00;54.10;;;;;;4934062;28;20044;-89
2022/05/01 12:09:42;;;;;;;6.35;5.75;;;20.60;56.50;;;;;;4934137;29;20036;-89
2022/05/01 12:12:13;;;;;;;8.02;7.32;;;20.30;60.00;;;;;;4940029;29;20035;-88
2022/05/01 12:14:40;;;;;;;7.68;6.80;;;20.00;58.40;;;;;;4949781;29;20011;-89
2022/05/01 12:17:16;;;;;;;8.45;7.50;;;19.80;65.90;;;;;;4932364;28;20055;-90
2022/05/01 12:19:44;;;;;;;8.68;7.75;;;19.60;75.50;;;;;;4933975;29;20055;-90
2022/05/01 12:22:14;;;;;;;7.90;7.20;;;19.60;77.70;;;;;;4934233;29;20028;-89
2022/05/01 12:24:44;;;;;;;7.82;7.13;;;19.40;71.30;;;;;;4934883;29;20106;-90
2022/05/01 12:27:11;;;;;;;8.48;7.60;;;19.20;66.70;;;;;;4932754;28;20024;-90
2022/05/01 12:29:41;;;;;;;7.88;7.28;;;18.90;72.10;;;;;;4929300;29;20108;-89
2022/05/01 12:32:09;;;;;;;9.45;8.65;;;18.60;72.50;;;;;;4932855;29;20034;-89
2022/05/01 12:34:39;;;;;;;9.63;8.73;;;18.20;83.80;;;;;;4932749;28;20110;-89
2022/05/01 12:37:19;;;;;;;9.13;8.43;;;17.90;85.00;;;;;;4943629;28;20502;-90
2022/05/01 12:40:10;;;;;;;9.88;8.23;;;17.40;81.90;;;;;;4953353;28;20466;-90
2022/05/01 12:45:34;;;;;;;8.20;7.50;;;16.90;84.00;;;;;;4931628;28;20546;-89
2022/05/01 12:48:02;;;;;;;7.68;6.82;;;17.00;81.60;;;;;;4936247;29;20027;-90
2022/05/01 12:50:31;;;;;;;7.40;6.72;;;17.20;81.90;;;;;;4936496;29;20047;-89
2022/05/01 12:52:59;;;;;;;8.32;7.57;;;17.40;80.40;;;;;;4937660;29;20036;-89
2022/05/01 12:55:32;;;;;;;8.35;7.05;;;17.60;81.70;;;;;;4936227;29;20381;-89
2022/05/01 12:57:59;;;;;;;7.30;6.20;;;17.80;80.90;;;;;;4938927;29;20028;-88
2022/05/01 13:00:32;;;;;;;10.07;7.65;;;17.80;79.10;;;;;;4948494;29;20483;-89
2022/05/01 13:03:25;;;;;;;6.35;5.80;;;17.80;81.50;;;;;;4922673;29;20055;-88
2022/05/01 13:06:14;;;;;;;6.47;5.97;;;17.80;81.30;;;;;;4938692;29;20048;-88
2022/05/01 13:08:53;;;;;;;10.00;6.60;;;17.90;81.70;;;;;;4933940;29;20036;-88
2022/05/01 13:11:25;;;;;;;10.60;7.20;;;18.00;78.90;;;;;;4937504;29;20042;-89
2022/05/01 13:14:04;;;;;;;6.72;6.18;;;18.00;77.80;;;;;;4934720;29;20523;-89
2022/05/01 13:16:32;;;;;;;7.22;5.78;;;18.00;79.30;;;;;;4930450;29;20032;-88
2022/05/01 13:19:15;;;;;;;6.30;5.70;;;18.00;80.30;;;;;;4935904;29;20020;-87
2022/05/01 13:21:48;;;;;;;5.13;4.72;;;18.10;77.40;;;;;;4937603;29;20024;-89
2022/05/01 13:24:20;;;;;;;10.32;5.88;;;18.20;74.70;;;;;;4925791;29;20028;-89
2022/05/01 13:26:47;;;;;;;7.25;5.28;;;18.30;74.50;;;;;;4920989;29;20484;-89
2022/05/01 13:29:14;;;;;;;7.03;5.88;;;18.30;75.50;;;;;;4944111;29;20024;-89
2022/05/01 13:31:44;;;;;;;6.70;5.88;;;18.30;72.80;;;;;;4935188;29;20098;-89